createdAt,value
2023-03-08T00:01:26.765Z,66.50
2023-03-08T00:03:55.607Z,66.88
2023-03-08T00:06:23.837Z,67.52
2023-03-08T00:08:54.917Z,67.02
2023-03-08T00:11:22.938Z,67.41
2023-03-08T00:13:50.994Z,67.14
2023-03-08T00:16:19.232Z,67.66
2023-03-08T00:18:46.976Z,67.34
2023-03-08T00:21:16.092Z,67.54
2023-03-08T00:23:44.913Z,68.95
2023-03-08T00:26:12.690Z,68.99
2023-03-08T00:28:40.765Z,69.16
2023-03-08T00:31:13.323Z,69.29
2023-03-08T00:33:41.110Z,68.54
2023-03-08T00:36:16.341Z,70.00
2023-03-08T00:38:43.853Z,70.99
2023-03-08T00:41:11.080Z,71.13
2023-03-08T00:43:38.825Z,71.63
2023-03-08T00:46:07.458Z,72.31
2023-03-08T00:48:35.475Z,72.84
2023-03-08T00:51:02.986Z,73.42
2023-03-08T00:53:31.428Z,73.85
2023-03-08T00:56:00.125Z,73.91
2023-03-08T00:58:28.862Z,73.87
2023-03-08T01:00:56.858Z,74.39
2023-03-08T01:03:24.831Z,75.07
2023-03-08T01:05:54.097Z,74.57
2023-03-08T01:08:22.437Z,74.45
2023-03-08T01:10:50.802Z,74.47
2023-03-08T01:13:19.157Z,73.96
2023-03-08T01:15:46.781Z,72.99
2023-03-08T01:18:14.240Z,72.68
2023-03-08T01:20:42.394Z,73.02
2023-03-08T01:23:10.727Z,74.95
2023-03-08T01:25:39.025Z,76.53
2023-03-08T01:28:07.141Z,77.04
2023-03-08T01:30:35.061Z,77.39
2023-03-08T01:33:03.180Z,77.32
2023-03-08T01:35:30.765Z,76.40
2023-03-08T01:37:58.784Z,77.45
2023-03-08T01:40:26.921Z,78.31
2023-03-08T01:42:55.067Z,80.21
2023-03-08T01:45:59.478Z,81.69
2023-03-08T01:48:28.527Z,82.18
2023-03-08T01:50:56.875Z,79.67
2023-03-08T01:53:24.832Z,77.00
2023-03-08T01:55:52.400Z,78.86
2023-03-08T01:58:20.597Z,79.16
2023-03-08T02:00:48.740Z,79.50
2023-03-08T02:03:15.934Z,80.63
2023-03-08T02:05:43.549Z,80.38
2023-03-08T02:08:11.668Z,78.50
2023-03-08T02:10:38.703Z,80.40
2023-03-08T02:13:07.430Z,80.93
2023-03-08T02:15:35.287Z,81.90
2023-03-08T02:18:03.322Z,82.57
2023-03-08T02:20:38.345Z,82.58
2023-03-08T02:23:16.248Z,83.02
2023-03-08T02:25:51.099Z,81.86
2023-03-08T02:28:19.533Z,82.88
2023-03-08T02:30:47.175Z,84.14
2023-03-08T02:33:14.780Z,84.72
2023-03-08T02:35:44.347Z,85.05
2023-03-08T02:38:13.391Z,83.64
2023-03-08T02:40:41.263Z,83.95
2023-03-08T02:43:09.175Z,84.81
2023-03-08T02:45:36.305Z,84.62
2023-03-08T02:48:04.490Z,84.17
2023-03-08T02:50:32.014Z,85.17
2023-03-08T02:53:00.385Z,85.24
2023-03-08T02:55:27.910Z,85.87
2023-03-08T02:57:55.973Z,85.23
2023-03-08T03:00:24.212Z,84.33
2023-03-08T03:02:52.313Z,82.94
2023-03-08T03:05:20.091Z,83.35
2023-03-08T03:07:48.228Z,84.88
2023-03-08T03:10:16.386Z,85.17
2023-03-08T03:12:44.725Z,85.04
2023-03-08T03:15:14.080Z,84.53
2023-03-08T03:17:42.202Z,84.52
2023-03-08T03:20:13.530Z,84.98
2023-03-08T03:22:41.598Z,82.46
2023-03-08T03:25:10.278Z,81.13
2023-03-08T03:27:38.407Z,81.23
2023-03-08T03:30:08.690Z,81.97
2023-03-08T03:32:36.916Z,81.82
2023-03-08T03:35:05.936Z,82.94
2023-03-08T03:37:35.336Z,82.21
2023-03-08T03:40:04.000Z,83.01
2023-03-08T03:42:32.752Z,82.51
2023-03-08T03:45:00.778Z,82.90
2023-03-08T03:47:29.422Z,82.33
2023-03-08T03:49:56.894Z,82.10
2023-03-08T03:52:25.125Z,82.80
2023-03-08T03:54:52.649Z,83.02
2023-03-08T03:57:21.411Z,83.16
2023-03-08T03:59:49.055Z,83.10
2023-03-08T04:02:16.720Z,82.90
2023-03-08T04:04:44.510Z,82.65
2023-03-08T04:07:14.081Z,83.18
2023-03-08T04:09:44.663Z,82.41
2023-03-08T04:12:13.472Z,82.81
2023-03-08T04:14:41.599Z,81.58
2023-03-08T04:17:09.769Z,81.56
2023-03-08T04:22:14.319Z,82.32
2023-03-08T04:24:42.747Z,82.82
2023-03-08T04:27:11.564Z,82.66
2023-03-08T04:29:40.006Z,83.57
2023-03-08T04:45:30.732Z,82.72
2023-03-08T05:01:23.200Z,81.19
2023-03-08T05:03:52.195Z,81.35
2023-03-08T05:06:20.266Z,81.14
2023-03-08T05:11:27.768Z,81.29
2023-03-08T05:13:57.527Z,81.38
2023-03-08T05:16:26.487Z,81.23
2023-03-08T05:18:54.190Z,80.89
2023-03-08T05:21:23.018Z,81.20
2023-03-08T05:23:52.008Z,81.27
2023-03-08T06:11:09.764Z,81.59
2023-03-08T06:13:37.722Z,81.94
2023-03-08T06:16:07.362Z,81.67
2023-03-08T06:18:36.729Z,81.86
2023-03-08T11:28:57.932Z,40.92
2023-03-08T13:39:32.542Z,37.17
2023-03-08T13:42:11.011Z,36.33
2023-03-08T13:44:38.223Z,35.67
2023-03-08T13:47:23.641Z,34.84
2023-03-08T13:49:52.006Z,35.16
2023-03-08T13:52:31.341Z,35.28
2023-03-08T13:55:00.242Z,35.79
2023-03-08T13:57:30.316Z,36.56
2023-03-08T13:59:59.617Z,36.23
2023-03-08T14:02:29.057Z,35.52
2023-03-08T14:48:40.073Z,45.03
2023-03-08T15:36:06.031Z,49.60
2023-03-08T15:38:34.826Z,50.26
2023-03-08T15:41:05.276Z,50.38
2023-03-08T15:48:51.358Z,51.53
2023-03-08T15:56:58.612Z,51.33
2023-03-08T15:59:26.837Z,52.12
2023-03-08T16:01:55.700Z,52.69
2023-03-08T16:04:24.223Z,52.64
2023-03-08T16:06:52.943Z,52.58
2023-03-08T16:09:23.076Z,52.58
2023-03-08T16:11:52.535Z,52.45
2023-03-08T16:14:21.806Z,51.95
2023-03-08T16:51:50.466Z,54.42
2023-03-08T16:54:18.715Z,54.97
2023-03-08T16:56:48.209Z,55.27
2023-03-08T17:23:34.504Z,60.48
2023-03-08T17:26:06.041Z,61.36
2023-03-08T17:28:35.048Z,61.86
2023-03-08T17:31:03.506Z,62.35
2023-03-08T17:33:32.156Z,62.41
2023-03-08T17:36:02.191Z,62.73
2023-03-08T17:38:29.892Z,62.45
2023-03-08T17:40:58.680Z,62.96
2023-03-08T17:43:27.621Z,63.44
2023-03-08T17:51:23.704Z,63.49
2023-03-08T17:53:51.954Z,63.86
2023-03-08T17:56:21.694Z,64.23
2023-03-08T17:58:51.015Z,64.56
2023-03-08T18:01:23.963Z,64.32
2023-03-08T18:03:52.066Z,64.24
2023-03-08T18:06:28.898Z,64.50
2023-03-08T18:08:56.814Z,64.96
2023-03-08T18:11:24.956Z,64.83
2023-03-08T18:16:35.331Z,65.51
2023-03-08T18:19:03.713Z,65.26
2023-03-08T18:21:32.983Z,64.11
2023-03-08T18:24:01.714Z,64.51
2023-03-08T18:26:30.028Z,64.26
2023-03-08T18:28:58.816Z,64.24
2023-03-08T18:31:26.810Z,63.97
2023-03-08T18:33:58.370Z,63.22
2023-03-08T18:36:26.954Z,63.37
2023-03-08T18:38:57.873Z,63.27
2023-03-08T18:41:28.705Z,62.78
2023-03-08T18:43:56.466Z,62.98
2023-03-08T18:54:29.479Z,62.79
2023-03-08T19:21:08.543Z,62.00
2023-03-08T19:23:59.490Z,62.14
2023-03-08T19:26:38.010Z,62.24
2023-03-08T19:29:22.374Z,62.09
2023-03-08T19:32:02.189Z,62.85
2023-03-08T19:34:38.257Z,64.54
2023-03-08T19:37:06.560Z,65.62
2023-03-08T19:39:36.823Z,65.92
2023-03-08T19:42:08.832Z,66.11
2023-03-08T19:44:38.043Z,65.71
2023-03-08T19:47:07.109Z,65.34
2023-03-08T19:49:39.741Z,65.15
2023-03-08T19:52:07.928Z,65.11
2023-03-08T19:54:36.773Z,64.85
2023-03-08T19:57:05.220Z,64.71
2023-03-08T19:59:34.223Z,65.05
2023-03-08T20:02:02.648Z,65.00
2023-03-08T20:04:31.048Z,64.39
2023-03-08T20:07:04.407Z,64.68
2023-03-08T20:09:33.198Z,64.97
2023-03-08T20:12:02.360Z,65.25
2023-03-08T20:14:33.120Z,65.30
2023-03-08T20:17:02.007Z,64.94
2023-03-08T20:19:32.020Z,64.91
2023-03-08T20:22:01.844Z,64.89
2023-03-08T20:24:38.367Z,64.92
2023-03-08T20:27:05.893Z,63.96
2023-03-08T20:29:34.643Z,63.47
2023-03-08T20:32:10.017Z,63.14
2023-03-08T20:34:38.854Z,62.75
2023-03-08T20:37:07.691Z,63.02
2023-03-08T20:39:36.388Z,62.98
2023-03-08T20:42:05.780Z,64.47
2023-03-08T20:44:34.323Z,65.47
2023-03-08T20:47:03.247Z,66.09
2023-03-08T20:49:36.742Z,66.15
2023-03-08T20:52:06.299Z,66.49
2023-03-08T20:54:35.387Z,66.17
2023-03-08T20:57:05.669Z,65.56
2023-03-08T20:59:35.106Z,65.08
2023-03-08T21:02:04.006Z,65.67
2023-03-08T21:04:32.652Z,65.96
2023-03-08T21:07:00.455Z,65.87
2023-03-08T21:09:29.369Z,65.61
2023-03-08T21:11:57.954Z,66.02
2023-03-08T21:14:26.784Z,66.20
2023-03-08T21:16:55.915Z,65.88
2023-03-08T21:19:25.140Z,65.25
2023-03-08T21:21:53.146Z,65.18
2023-03-08T21:24:25.593Z,65.35
2023-03-08T21:26:54.070Z,65.70
2023-03-08T21:29:22.970Z,65.45
2023-03-08T21:31:51.153Z,65.06
2023-03-08T21:34:19.972Z,65.13
2023-03-08T21:36:48.608Z,65.98
2023-03-08T21:39:18.142Z,65.60
2023-03-08T21:41:49.452Z,65.92
2023-03-08T21:44:20.876Z,65.60
2023-03-08T21:46:49.425Z,66.28
2023-03-08T21:49:19.989Z,65.98
2023-03-08T21:51:48.806Z,66.62
2023-03-08T21:54:17.875Z,66.08
2023-03-08T21:56:47.027Z,65.97
2023-03-08T21:59:16.880Z,65.76
2023-03-08T22:01:48.407Z,66.15
2023-03-08T22:04:18.340Z,66.50
2023-03-08T22:06:47.794Z,65.85
2023-03-08T22:09:17.146Z,65.26
2023-03-08T22:11:45.836Z,65.34
2023-03-08T22:14:14.644Z,65.72
2023-03-08T22:16:42.672Z,66.26
2023-03-08T22:19:11.974Z,66.91
2023-03-08T22:21:40.711Z,67.69
2023-03-08T22:24:14.116Z,67.29
2023-03-08T22:26:43.527Z,67.97
2023-03-08T22:29:11.843Z,69.46
2023-03-08T22:31:40.411Z,71.23
2023-03-08T22:34:09.713Z,70.24
2023-03-08T22:36:39.160Z,69.49
2023-03-08T22:39:08.085Z,69.82
2023-03-08T22:41:39.010Z,70.00
2023-03-08T22:44:06.616Z,70.29
2023-03-08T22:46:35.592Z,70.04
2023-03-08T22:49:05.138Z,69.99
2023-03-08T22:51:34.569Z,70.08
2023-03-08T22:54:05.759Z,70.03
2023-03-08T22:56:34.033Z,70.74
2023-03-08T22:59:03.481Z,70.94
2023-03-08T23:01:33.305Z,70.26
2023-03-08T23:04:02.450Z,70.60
2023-03-08T23:06:30.845Z,70.76
2023-03-08T23:09:02.734Z,70.94
2023-03-08T23:11:31.862Z,70.88
2023-03-08T23:14:01.216Z,70.10
2023-03-08T23:16:29.854Z,69.53
2023-03-08T23:18:58.717Z,69.19
2023-03-08T23:21:27.612Z,70.02
2023-03-08T23:23:56.394Z,70.12
2023-03-08T23:26:26.967Z,70.38
2023-03-08T23:28:56.018Z,70.65
2023-03-08T23:31:27.367Z,70.15
2023-03-08T23:33:55.632Z,69.81
2023-03-08T23:36:25.751Z,69.68
2023-03-08T23:38:55.071Z,69.83
2023-03-08T23:41:24.976Z,69.62
2023-03-08T23:43:56.458Z,70.52
2023-03-08T23:46:24.545Z,70.15
2023-03-08T23:48:55.576Z,70.58
2023-03-08T23:51:24.053Z,70.54
2023-03-08T23:53:53.912Z,71.04
2023-03-08T23:56:31.044Z,70.59
2023-03-08T23:59:00.762Z,70.60
